Time;durP1;ratioP1;P1;durP2;ratioP2;P2;SDS_P1;SDS_P2;PMS_P1;PMS_P2;Temp;Humidity;BMP_temperature;BMP_pressure;BME280_temperature;BME280_humidity;BME280_pressure;Samples;Min_cycle;Max_cycle;Signal;HPM_P1;HPM_P2
2023/06/02 00:01:43;;;;;;;4.60;2.30;;;18.60;42.60;;;;;;4974542;28;20038;-84
2023/06/02 00:04:09;;;;;;;2.75;1.60;;;18.50;42.50;;;;;;4979822;28;20038;-84
2023/06/02 00:06:37;;;;;;;4.28;1.67;;;18.50;42.50;;;;;;4980868;28;20293;-84
2023/06/02 00:09:12;;;;;;;3.75;1.67;;;18.50;42.60;;;;;;4980535;28;20035;-84
2023/06/02 00:11:41;;;;;;;2.60;1.42;;;18.50;42.60;;;;;;4974196;28;20069;-83
2023/06/02 00:14:07;;;;;;;3.40;1.85;;;18.40;42.50;;;;;;4977042;28;20034;-85
2023/06/02 00:16:42;;;;;;;3.67;2.00;;;18.40;42.50;;;;;;4979264;28;20137;-84
2023/06/02 00:19:11;;;;;;;2.90;1.63;;;18.40;42.60;;;;;;4970523;28;20065;-83
2023/06/02 00:21:47;;;;;;;2.45;1.45;;;18.40;42.70;;;;;;4991599;28;20430;-81
2023/06/02 00:24:23;;;;;;;4.53;2.17;;;18.30;42.40;;;;;;4975562;28;20034;-80
2023/06/02 00:26:49;;;;;;;3.22;1.50;;;18.30;42.50;;;;;;4977341;28;20035;-81
2023/06/02 00:29:15;;;;;;;2.35;1.40;;;18.30;42.50;;;;;;4977536;28;20042;-82
2023/06/02 00:31:44;;;;;;;2.45;1.13;;;18.30;42.60;;;;;;4977994;28;20085;-82
2023/06/02 00:34:16;;;;;;;3.50;1.70;;;18.20;42.40;;;;;;4978995;28;20037;-84
2023/06/02 00:36:45;;;;;;;3.25;1.70;;;18.20;42.50;;;;;;4966753;28;20074;-84
2023/06/02 00:39:11;;;;;;;4.38;2.05;;;18.20;42.50;;;;;;4983482;28;20046;-83
2023/06/02 00:41:38;;;;;;;1.95;1.30;;;18.10;42.40;;;;;;4980553;28;20124;-84
2023/06/02 00:44:04;;;;;;;1.80;1.30;;;18.10;42.50;;;;;;4981405;28;20124;-83
2023/06/02 00:46:30;;;;;;;2.35;1.52;;;18.10;42.60;;;;;;4976903;28;20061;-84
2023/06/02 00:48:59;;;;;;;1.90;1.20;;;18.10;42.70;;;;;;4984461;28;20030;-83
2023/06/02 00:51:25;;;;;;;2.33;1.83;;;18.00;42.50;;;;;;4982289;28;20509;-83
2023/06/02 00:53:55;;;;;;;3.28;2.00;;;18.00;42.60;;;;;;4976165;28;20042;-83
2023/06/02 00:56:24;;;;;;;3.13;1.30;;;18.00;42.60;;;;;;4980582;28;20395;-83
2023/06/02 00:58:52;;;;;;;2.55;1.40;;;17.90;42.40;;;;;;5001959;28;20225;-84
2023/06/02 01:01:18;;;;;;;3.53;1.08;;;17.90;42.60;;;;;;4973249;28;20041;-83
2023/06/02 01:03:48;;;;;;;3.15;1.30;;;17.80;42.40;;;;;;4980116;28;20393;-84
2023/06/02 01:06:20;;;;;;;2.63;1.63;;;17.80;42.50;;;;;;4979112;28;20030;-83
2023/06/02 01:08:51;;;;;;;3.38;1.30;;;17.80;42.60;;;;;;4974280;28;20040;-83
2023/06/02 01:11:18;;;;;;;1.52;1.35;;;17.70;42.40;;;;;;4994547;28;20550;-83
2023/06/02 01:13:49;;;;;;;2.25;1.20;;;17.70;42.50;;;;;;4978782;28;20185;-83
2023/06/02 01:16:15;;;;;;;3.30;1.48;;;17.70;42.50;;;;;;4983564;28;20027;-83
2023/06/02 01:18:45;;;;;;;3.45;1.48;;;17.70;42.50;;;;;;4965394;28;20177;-84
2023/06/02 01:21:23;;;;;;;1.95;1.33;;;17.70;42.60;;;;;;4967163;28;20403;-84
2023/06/02 01:23:57;;;;;;;2.17;1.33;;;17.70;42.60;;;;;;4994842;28;20101;-84
2023/06/02 01:26:25;;;;;;;1.80;1.17;;;17.70;42.60;;;;;;4968500;28;20442;-83
2023/06/02 01:28:51;;;;;;;2.38;1.40;;;17.60;42.50;;;;;;4972841;28;20038;-84
2023/06/02 01:31:23;;;;;;;2.28;1.05;;;17.60;42.50;;;;;;4974971;28;20038;-84
2023/06/02 01:34:02;;;;;;;1.77;1.17;;;17.60;42.60;;;;;;4978540;28;20267;-82
2023/06/02 01:36:35;;;;;;;2.25;1.60;;;17.60;42.70;;;;;;4990759;28;20077;-83
2023/06/02 01:39:02;;;;;;;1.35;1.05;;;17.60;42.60;;;;;;4979197;28;20398;-83
2023/06/02 01:41:30;;;;;;;2.45;1.65;;;17.50;42.50;;;;;;4982331;28;20038;-84
2023/06/02 01:44:00;;;;;;;2.13;1.50;;;17.50;42.50;;;;;;4981769;28;20108;-83
2023/06/02 01:46:27;;;;;;;2.17;1.30;;;17.50;42.60;;;;;;4982229;28;20050;-83
2023/06/02 01:48:54;;;;;;;2.42;1.25;;;17.40;42.50;;;;;;4984861;28;20073;-83
2023/06/02 01:51:21;;;;;;;3.30;1.05;;;17.40;42.50;;;;;;4986106;28;20605;-82
2023/06/02 01:53:49;;;;;;;2.20;1.40;;;17.40;42.60;;;;;;4976604;28;20499;-83
2023/06/02 01:56:15;;;;;;;6.50;2.45;;;17.40;42.70;;;;;;4986392;28;20035;-84
2023/06/02 01:58:42;;;;;;;1.20;1.00;;;17.30;42.50;;;;;;4987934;28;20034;-83
2023/06/02 02:01:08;;;;;;;2.67;1.23;;;17.30;42.60;;;;;;4987263;28;20038;-83
2023/06/02 02:03:37;;;;;;;1.85;1.45;;;17.30;42.70;;;;;;4994580;28;20026;-83
2023/06/02 02:06:03;;;;;;;3.47;1.63;;;17.20;42.50;;;;;;4984905;28;20039;-83
2023/06/02 02:08:29;;;;;;;1.80;1.63;;;17.20;42.60;;;;;;4978768;28;20449;-85
2023/06/02 02:10:59;;;;;;;1.50;0.95;;;17.20;42.70;;;;;;4986643;28;20052;-84
2023/06/02 02:13:28;;;;;;;2.08;0.95;;;17.20;42.80;;;;;;4978197;28;20042;-86
2023/06/02 02:15:54;;;;;;;2.05;1.30;;;17.10;42.60;;;;;;4983107;28;20030;-83
2023/06/02 02:18:24;;;;;;;1.25;1.08;;;17.10;42.70;;;;;;4984701;28;20065;-85
2023/06/02 02:20:50;;;;;;;2.97;1.20;;;17.10;42.70;;;;;;4978161;28;20031;-84
2023/06/02 02:23:27;;;;;;;2.00;1.30;;;17.10;42.80;;;;;;4984785;28;20041;-84
2023/06/02 02:25:53;;;;;;;1.23;1.13;;;17.10;42.80;;;;;;4988603;28;20414;-85
2023/06/02 02:28:20;;;;;;;2.67;1.30;;;17.10;42.80;;;;;;4975000;28;20062;-83
2023/06/02 02:30:49;;;;;;;2.95;1.35;;;17.00;42.60;;;;;;4979823;28;20046;-84
2023/06/02 02:33:16;;;;;;;1.63;1.10;;;17.00;42.70;;;;;;4987748;28;20410;-85
2023/06/02 02:35:43;;;;;;;2.65;1.33;;;17.00;42.70;;;;;;4979865;28;20042;-83
2023/06/02 02:38:12;;;;;;;1.33;1.10;;;17.00;42.70;;;;;;4974181;28;20027;-84
2023/06/02 02:40:41;;;;;;;4.20;1.83;;;17.00;42.80;;;;;;4976249;28;20027;-83
2023/06/02 02:43:08;;;;;;;1.60;1.20;;;16.90;42.60;;;;;;4988932;28;20074;-82
2023/06/02 02:45:34;;;;;;;2.03;1.00;;;16.90;42.70;;;;;;4987638;28;20034;-84
2023/06/02 02:48:00;;;;;;;2.40;1.65;;;16.90;42.70;;;;;;4999292;28;20437;-83
2023/06/02 02:50:39;;;;;;;1.55;1.45;;;16.90;42.80;;;;;;4979226;28;20117;-84
2023/06/02 02:53:11;;;;;;;1.67;1.20;;;16.90;42.80;;;;;;4996788;28;20534;-84
2023/06/02 02:55:38;;;;;;;1.75;1.23;;;16.80;42.60;;;;;;4985408;28;20045;-84
2023/06/02 02:58:08;;;;;;;3.15;1.20;;;16.80;42.60;;;;;;4985827;28;20038;-85
2023/06/02 03:00:35;;;;;;;2.15;1.15;;;16.80;42.80;;;;;;4987792;28;20023;-84
2023/06/02 03:03:02;;;;;;;2.17;1.52;;;16.80;42.80;;;;;;4987652;28;20042;-84
2023/06/02 03:05:34;;;;;;;1.88;1.10;;;16.70;42.60;;;;;;4985193;28;20033;-84
2023/06/02 03:08:03;;;;;;;1.85;1.10;;;16.70;42.70;;;;;;4977244;28;20116;-84
2023/06/02 03:10:33;;;;;;;2.30;1.00;;;16.60;42.60;;;;;;4985200;28;20405;-84
2023/06/02 03:12:59;;;;;;;2.40;1.17;;;16.60;42.60;;;;;;4985814;28;20041;-82
2023/06/02 03:15:28;;;;;;;1.67;1.58;;;16.60;42.70;;;;;;4981323;28;20043;-83
2023/06/02 03:18:16;;;;;;;2.25;1.38;;;16.60;42.70;;;;;;4983795;28;20593;-83
2023/06/02 03:20:43;;;;;;;1.58;1.15;;;16.50;42.60;;;;;;4985796;28;20336;-84
2023/06/02 03:23:10;;;;;;;1.80;1.60;;;16.50;42.60;;;;;;4983943;28;20038;-82
2023/06/02 03:25:40;;;;;;;2.70;1.02;;;16.50;42.70;;;;;;4983140;28;20034;-83
2023/06/02 03:28:08;;;;;;;1.48;1.35;;;16.50;42.70;;;;;;4985035;28;20050;-82
2023/06/02 03:30:34;;;;;;;2.08;1.17;;;16.50;42.80;;;;;;4980083;28;20092;-83
2023/06/02 03:33:01;;;;;;;2.38;1.17;;;16.40;42.60;;;;;;4968255;28;20129;-83
2023/06/02 03:35:34;;;;;;;2.40;0.90;;;16.40;42.60;;;;;;4986651;28;20129;-82
2023/06/02 03:38:00;;;;;;;2.40;1.33;;;16.40;42.60;;;;;;4983773;28;20085;-82
2023/06/02 03:40:29;;;;;;;4.22;1.90;;;16.40;42.70;;;;;;4985596;28;20430;-83
2023/06/02 03:42:56;;;;;;;1.88;0.85;;;16.40;42.70;;;;;;5000257;28;20042;-82
2023/06/02 03:45:22;;;;;;;1.42;1.00;;;16.30;42.50;;;;;;4968654;28;20038;-83
2023/06/02 03:47:52;;;;;;;2.33;0.98;;;16.40;42.70;;;;;;4984305;28;20133;-84
2023/06/02 03:50:21;;;;;;;1.80;1.13;;;16.30;42.60;;;;;;4983161;28;20406;-84
2023/06/02 03:52:51;;;;;;;2.35;0.95;;;16.30;42.60;;;;;;4949819;28;20109;-83
2023/06/02 03:55:17;;;;;;;2.53;1.08;;;16.30;42.60;;;;;;4979628;28;20048;-84
2023/06/02 03:57:47;;;;;;;2.65;1.13;;;16.30;42.70;;;;;;4977145;28;20031;-83
2023/06/02 04:00:14;;;;;;;2.15;1.00;;;16.30;42.70;;;;;;4965494;28;20073;-82
2023/06/02 04:02:46;;;;;;;4.82;1.90;;;16.20;42.60;;;;;;4981600;28;20049;-82
2023/06/02 04:05:18;;;;;;;2.03;1.10;;;16.20;42.60;;;;;;4980459;28;20032;-83
2023/06/02 04:07:50;;;;;;;2.60;1.75;;;16.20;42.70;;;;;;4985078;28;20030;-85
2023/06/02 04:10:30;;;;;;;3.72;1.20;;;16.20;42.70;;;;;;4983539;28;20505;-83
2023/06/02 04:12:57;;;;;;;2.45;1.45;;;16.20;42.80;;;;;;4984401;28;20035;-83
2023/06/02 04:15:26;;;;;;;1.75;1.45;;;16.20;42.80;;;;;;4963514;28;20039;-82
2023/06/02 04:17:56;;;;;;;2.13;1.23;;;16.10;42.70;;;;;;4981839;28;20394;-81
2023/06/02 04:20:28;;;;;;;2.05;1.10;;;16.10;42.70;;;;;;4999083;28;20035;-82
2023/06/02 04:22:55;;;;;;;1.70;1.60;;;16.10;42.70;;;;;;4995722;28;20027;-83
2023/06/02 04:25:22;;;;;;;2.00;1.20;;;16.10;42.80;;;;;;4988682;28;20038;-81
2023/06/02 04:27:51;;;;;;;2.42;1.25;;;16.00;42.60;;;;;;4988543;28;20033;-82
2023/06/02 04:30:18;;;;;;;2.03;1.20;;;16.00;42.70;;;;;;4982837;28;20046;-82
2023/06/02 04:32:44;;;;;;;3.58;1.13;;;16.00;42.70;;;;;;4983266;28;20035;-83
2023/06/02 04:35:18;;;;;;;2.25;1.67;;;16.00;42.80;;;;;;4988367;28;20042;-81
2023/06/02 04:37:46;;;;;;;1.42;0.82;;;16.00;42.80;;;;;;4985196;28;20035;-81
2023/06/02 04:40:19;;;;;;;1.90;0.90;;;16.10;43.60;;;;;;4988952;28;20041;-81
2023/06/02 04:42:49;;;;;;;1.30;1.00;;;16.10;43.00;;;;;;4982518;28;20046;-83
2023/06/02 04:45:16;;;;;;;2.65;1.13;;;16.10;43.00;;;;;;4993948;28;20034;-81
2023/06/02 04:47:44;;;;;;;2.17;1.00;;;16.10;43.00;;;;;;4985039;28;20577;-82
2023/06/02 04:50:13;;;;;;;2.03;1.00;;;16.10;43.00;;;;;;4983174;28;20125;-83
2023/06/02 04:52:44;;;;;;;1.60;0.80;;;16.10;43.00;;;;;;4986351;28;20037;-84
2023/06/02 04:55:11;;;;;;;4.05;1.38;;;16.10;43.00;;;;;;4984104;28;20154;-80
2023/06/02 04:57:41;;;;;;;1.30;0.80;;;16.10;42.90;;;;;;4983891;28;20038;-81
2023/06/02 05:00:11;;;;;;;1.63;1.00;;;16.10;42.90;;;;;;4982021;28;20526;-80
2023/06/02 05:02:40;;;;;;;2.15;1.50;;;16.10;42.90;;;;;;4971948;28;20520;-81
2023/06/02 05:05:10;;;;;;;2.65;0.80;;;16.10;42.90;;;;;;4985796;28;20485;-82
2023/06/02 05:07:37;;;;;;;2.35;1.08;;;16.10;42.90;;;;;;4992559;28;20049;-82
2023/06/02 05:10:12;;;;;;;1.95;1.00;;;16.10;42.80;;;;;;4990388;28;20034;-80
2023/06/02 05:12:41;;;;;;;1.77;1.00;;;16.10;42.80;;;;;;4991322;28;20516;-80
2023/06/02 05:15:08;;;;;;;1.27;0.82;;;16.10;42.80;;;;;;4996337;28;20038;-84
2023/06/02 05:17:35;;;;;;;3.72;1.40;;;16.10;42.80;;;;;;4977893;28;20038;-84
2023/06/02 05:20:12;;;;;;;1.15;1.00;;;16.10;42.80;;;;;;4982497;28;20061;-86
2023/06/02 05:22:38;;;;;;;1.52;0.98;;;16.10;42.80;;;;;;4991793;28;20069;-82
2023/06/02 05:25:07;;;;;;;1.45;1.10;;;16.10;42.70;;;;;;4988463;28;20157;-84
2023/06/02 05:27:37;;;;;;;1.20;1.10;;;16.20;42.90;;;;;;4986740;28;20046;-84
2023/06/02 05:30:09;;;;;;;2.13;0.80;;;16.20;42.80;;;;;;4985179;28;20041;-87
2023/06/02 05:32:38;;;;;;;2.20;1.10;;;16.20;42.80;;;;;;4982110;28;20027;-88
2023/06/02 05:35:06;;;;;;;1.92;0.90;;;16.20;42.80;;;;;;4985978;28;20042;-85
2023/06/02 05:37:35;;;;;;;1.95;1.00;;;16.20;42.70;;;;;;4982825;28;20026;-86
2023/06/02 05:40:05;;;;;;;2.33;1.00;;;16.30;42.80;;;;;;4989338;28;20068;-85
2023/06/02 05:42:35;;;;;;;1.58;0.93;;;16.30;42.70;;;;;;4982975;28;20030;-84
2023/06/02 05:45:05;;;;;;;1.55;1.10;;;16.40;42.70;;;;;;4986393;28;20046;-87
2023/06/02 05:47:47;;;;;;;1.65;1.08;;;16.40;42.60;;;;;;4970206;28;20600;-85
2023/06/02 05:50:22;;;;;;;2.00;1.23;;;16.50;42.70;;;;;;4978433;28;20042;-81
2023/06/02 05:52:50;;;;;;;4.43;1.73;;;16.60;42.70;;;;;;4979599;28;20030;-82
2023/06/02 05:55:17;;;;;;;5.60;2.00;;;16.60;43.30;;;;;;4980739;28;20552;-78
2023/06/02 05:57:44;;;;;;;6.03;1.90;;;16.70;42.90;;;;;;4999489;28;20489;-80
2023/06/02 06:00:12;;;;;;;4.32;1.73;;;16.70;42.80;;;;;;4979095;28;20042;-81
2023/06/02 06:02:47;;;;;;;5.03;1.88;;;16.70;42.60;;;;;;4979873;28;20367;-84
2023/06/02 06:05:19;;;;;;;3.92;1.77;;;16.70;42.40;;;;;;4991762;28;20038;-83
2023/06/02 06:07:46;;;;;;;4.75;1.77;;;16.70;42.20;;;;;;4979285;28;20041;-88
2023/06/02 06:10:12;;;;;;;7.68;1.83;;;16.60;41.90;;;;;;4978876;28;20118;-84
2023/06/02 06:12:39;;;;;;;5.07;1.92;;;16.60;41.70;;;;;;4979675;28;20448;-81
2023/06/02 06:15:05;;;;;;;4.05;1.63;;;16.60;41.60;;;;;;4980836;28;20503;-80
2023/06/02 06:17:31;;;;;;;4.47;2.13;;;16.50;41.40;;;;;;4985304;28;20069;-82
2023/06/02 06:19:58;;;;;;;5.40;1.73;;;16.30;41.10;;;;;;4990889;28;20030;-85
2023/06/02 06:22:24;;;;;;;4.60;2.03;;;16.30;41.20;;;;;;4975377;28;20051;-82
2023/06/02 06:24:50;;;;;;;3.38;1.63;;;16.20;41.10;;;;;;4964656;28;20517;-83
2023/06/02 06:27:17;;;;;;;3.25;1.50;;;16.10;41.00;;;;;;4987221;28;20502;-83
2023/06/02 06:29:48;;;;;;;4.88;2.22;;;16.10;41.00;;;;;;4976243;28;20046;-84
2023/06/02 06:32:15;;;;;;;4.68;1.83;;;16.10;41.00;;;;;;4986628;28;20034;-88
2023/06/02 06:34:42;;;;;;;5.32;2.75;;;16.10;41.20;;;;;;4987648;28;20364;-88
2023/06/02 06:37:08;;;;;;;2.90;1.58;;;16.30;41.40;;;;;;4982906;28;20529;-88
2023/06/02 06:39:34;;;;;;;3.78;1.50;;;16.40;41.30;;;;;;4979453;28;20031;-87
2023/06/02 06:42:09;;;;;;;2.67;1.58;;;16.60;41.40;;;;;;4980080;28;20048;-88
2023/06/02 06:44:42;;;;;;;2.63;1.42;;;16.70;41.30;;;;;;4978896;28;20034;-85
2023/06/02 06:47:08;;;;;;;2.97;1.27;;;16.90;41.40;;;;;;4990657;28;20292;-87
2023/06/02 06:49:35;;;;;;;2.42;1.55;;;17.10;41.50;;;;;;4978127;28;20375;-85
2023/06/02 06:52:01;;;;;;;4.95;1.80;;;17.20;41.40;;;;;;4976869;28;20034;-85
2023/06/02 06:54:27;;;;;;;3.55;1.50;;;17.40;41.50;;;;;;4980818;28;20035;-82
2023/06/02 06:56:53;;;;;;;2.78;1.55;;;17.50;41.50;;;;;;4975221;28;20061;-82
2023/06/02 06:59:19;;;;;;;5.10;1.95;;;17.60;41.50;;;;;;4973385;28;20036;-80
2023/06/02 07:01:48;;;;;;;2.35;1.58;;;17.70;41.50;;;;;;4978748;28;20482;-81
2023/06/02 07:04:17;;;;;;;2.92;1.40;;;17.80;41.40;;;;;;4989687;28;20026;-85
2023/06/02 07:06:44;;;;;;;2.95;1.73;;;17.90;41.40;;;;;;4976499;28;20108;-86
2023/06/02 07:09:11;;;;;;;5.57;1.52;;;18.00;41.40;;;;;;4986467;28;20034;-87
2023/06/02 07:11:37;;;;;;;3.30;1.50;;;18.20;41.60;;;;;;4971523;28;20049;-81
2023/06/02 07:14:05;;;;;;;4.30;1.88;;;18.30;41.60;;;;;;4979917;28;20489;-88
2023/06/02 07:16:38;;;;;;;2.13;1.77;;;18.30;41.30;;;;;;4990025;28;20031;-88
2023/06/02 07:19:16;;;;;;;3.38;1.80;;;18.50;41.50;;;;;;4966811;28;20034;-86
2023/06/02 07:21:42;;;;;;;5.88;2.38;;;18.60;41.50;;;;;;4976761;28;20068;-86
2023/06/02 07:24:09;;;;;;;3.88;1.80;;;18.70;41.50;;;;;;4986852;28;20092;-88
2023/06/02 07:26:35;;;;;;;3.70;1.70;;;18.80;41.50;;;;;;4980517;28;20042;-89
2023/06/02 07:29:03;;;;;;;3.70;2.00;;;18.80;41.30;;;;;;4983390;28;20074;-88
2023/06/02 07:31:32;;;;;;;4.07;1.92;;;18.90;41.30;;;;;;4990223;28;20783;-88
2023/06/02 07:34:04;;;;;;;4.43;1.80;;;19.00;41.40;;;;;;4985778;28;20029;-87
2023/06/02 07:36:32;;;;;;;5.18;1.50;;;19.00;41.20;;;;;;4979345;28;20038;-86
2023/06/02 07:38:59;;;;;;;1.85;1.20;;;19.10;41.20;;;;;;4980557;28;20034;-87
2023/06/02 07:41:27;;;;;;;3.88;1.30;;;19.20;41.30;;;;;;4972044;28;20517;-88
2023/06/02 07:43:54;;;;;;;5.13;2.35;;;19.30;41.30;;;;;;4982818;28;20056;-87
2023/06/02 07:46:29;;;;;;;3.30;1.67;;;19.40;41.30;;;;;;4992215;28;20157;-87
2023/06/02 07:48:58;;;;;;;5.70;1.75;;;19.50;41.30;;;;;;4980422;28;20453;-86
2023/06/02 07:51:24;;;;;;;3.88;1.70;;;19.60;41.30;;;;;;4979211;28;20030;-88
2023/06/02 07:53:50;;;;;;;4.35;1.42;;;19.80;41.40;;;;;;4992712;28;20034;-86
2023/06/02 07:56:16;;;;;;;3.70;1.50;;;19.90;41.30;;;;;;4980721;28;20042;-83
2023/06/02 07:58:45;;;;;;;4.97;2.28;;;20.10;41.30;;;;;;4984309;28;20046;-83
2023/06/02 08:01:14;;;;;;;5.53;1.38;;;20.30;41.40;;;;;;4985055;28;20034;-82
2023/06/02 08:03:40;;;;;;;5.32;1.73;;;20.50;41.50;;;;;;4980609;28;20063;-85
2023/06/02 08:06:09;;;;;;;3.33;1.40;;;20.80;41.80;;;;;;4986759;28;20053;-84
2023/06/02 08:08:35;;;;;;;3.70;1.65;;;21.20;41.90;;;;;;4984323;28;20054;-83
2023/06/02 08:11:01;;;;;;;2.67;2.00;;;21.50;41.70;;;;;;4978473;28;20461;-84
2023/06/02 08:13:28;;;;;;;5.13;1.75;;;21.80;41.80;;;;;;4974766;28;20129;-84
2023/06/02 08:15:54;;;;;;;3.03;1.65;;;22.00;41.70;;;;;;4985096;28;20494;-86
2023/06/02 08:18:26;;;;;;;5.93;1.57;;;22.10;41.60;;;;;;4980174;28;20031;-84
2023/06/02 08:21:12;;;;;;;4.35;2.17;;;22.20;41.50;;;;;;4954367;28;20488;-82
2023/06/02 08:23:38;;;;;;;3.97;1.52;;;22.30;41.50;;;;;;4972155;28;20137;-82
2023/06/02 08:26:04;;;;;;;4.90;2.00;;;22.50;41.60;;;;;;4978537;28;20031;-82
2023/06/02 08:28:33;;;;;;;7.50;1.83;;;22.80;41.70;;;;;;4983766;28;20130;-85
2023/06/02 08:31:00;;;;;;;2.67;1.52;;;23.10;41.80;;;;;;4987977;28;20603;-85
2023/06/02 08:33:33;;;;;;;6.65;1.98;;;23.50;41.90;;;;;;4979340;28;20484;-88
2023/06/02 08:36:00;;;;;;;4.45;1.48;;;23.90;42.00;;;;;;4981073;28;20159;-84
2023/06/02 08:38:44;;;;;;;4.45;2.22;;;24.40;42.20;;;;;;4978581;28;20039;-88
2023/06/02 08:41:14;;;;;;;4.68;1.80;;;24.80;42.10;;;;;;4979771;28;20046;-83
2023/06/02 08:43:41;;;;;;;3.65;1.70;;;25.00;41.90;;;;;;4986083;28;20220;-87
2023/06/02 08:46:11;;;;;;;4.10;1.80;;;25.10;41.60;;;;;;4985653;28;20044;-85
2023/06/02 08:48:39;;;;;;;3.83;2.20;;;25.30;41.40;;;;;;4977046;28;20038;-84
2023/06/02 08:51:10;;;;;;;4.70;1.77;;;25.40;41.10;;;;;;4980178;28;20073;-87
2023/06/02 08:53:38;;;;;;;5.50;2.05;;;25.50;40.90;;;;;;4972870;28;20031;-85
2023/06/02 08:56:04;;;;;;;11.13;3.00;;;25.60;40.60;;;;;;4980287;28;20166;-88
2023/06/02 08:58:36;;;;;;;7.53;2.22;;;25.80;40.50;;;;;;4972087;28;20022;-87
2023/06/02 09:01:03;;;;;;;14.05;3.55;;;26.00;40.30;;;;;;4972525;28;20046;-85
2023/06/02 09:03:32;;;;;;;6.20;2.42;;;26.10;40.00;;;;;;4973599;28;20431;-87
2023/06/02 09:05:58;;;;;;;7.78;2.20;;;26.30;39.70;;;;;;4978156;28;20031;-89
2023/06/02 09:08:24;;;;;;;10.77;2.50;;;26.30;39.50;;;;;;4978803;28;20058;-86
2023/06/02 09:10:50;;;;;;;8.00;2.78;;;26.30;39.30;;;;;;4978748;28;20133;-88
2023/06/02 09:13:33;;;;;;;8.10;3.20;;;26.40;39.20;;;;;;4979083;28;20037;-88
2023/06/02 09:16:03;;;;;;;4.28;2.40;;;26.50;39.00;;;;;;4981529;28;20043;-86
2023/06/02 09:18:30;;;;;;;6.68;2.33;;;26.50;39.00;;;;;;4987709;28;20064;-88
2023/06/02 09:20:59;;;;;;;5.80;2.22;;;26.60;38.90;;;;;;4979333;28;20042;-87
2023/06/02 09:23:45;;;;;;;4.43;1.98;;;26.60;38.80;;;;;;4981481;28;20034;-89
2023/06/02 09:26:25;;;;;;;4.20;1.80;;;26.70;38.40;;;;;;4982390;28;20457;-87
2023/06/02 09:29:15;;;;;;;5.80;2.00;;;26.80;38.30;;;;;;4997496;28;20124;-89
2023/06/02 09:31:48;;;;;;;4.93;1.60;;;27.00;38.30;;;;;;4986193;28;20296;-88
2023/06/02 09:34:18;;;;;;;4.25;1.90;;;27.20;38.80;;;;;;4987991;28;20038;-90
2023/06/02 09:36:46;;;;;;;4.18;1.45;;;27.40;38.00;;;;;;4981972;28;20042;-88
2023/06/02 09:39:35;;;;;;;3.55;1.67;;;27.70;37.80;;;;;;4980363;28;20034;-88
2023/06/02 09:42:02;;;;;;;5.28;2.40;;;28.00;37.40;;;;;;4978660;28;20038;-89
2023/06/02 09:44:30;;;;;;;5.50;1.90;;;28.40;37.30;;;;;;4981384;28;20466;-87
2023/06/02 09:46:57;;;;;;;7.50;2.47;;;28.80;37.00;;;;;;4985718;28;20073;-88
2023/06/02 09:49:23;;;;;;;7.13;2.33;;;29.20;36.70;;;;;;4992292;28;20594;-87
2023/06/02 09:51:50;;;;;;;7.30;2.05;;;29.60;36.40;;;;;;4984099;28;20499;-86
2023/06/02 09:54:16;;;;;;;4.03;2.03;;;29.90;36.10;;;;;;4990989;28;20525;-89
2023/06/02 09:56:46;;;;;;;4.00;1.42;;;30.20;35.80;;;;;;4983017;28;20116;-89
2023/06/02 09:59:17;;;;;;;5.28;2.13;;;30.40;35.60;;;;;;4980494;28;20604;-87
2023/06/02 10:01:48;;;;;;;3.78;1.70;;;30.40;35.40;;;;;;4982538;28;20556;-85
2023/06/02 10:04:14;;;;;;;3.30;1.83;;;30.60;35.30;;;;;;4979286;28;20041;-87
2023/06/02 10:07:06;;;;;;;3.97;2.10;;;30.70;35.20;;;;;;4979642;28;20038;-87
2023/06/02 10:09:58;;;;;;;6.73;2.43;;;30.80;34.90;;;;;;4976978;28;20038;-88
2023/06/02 10:12:50;;;;;;;4.60;2.03;;;31.00;34.90;;;;;;4981635;28;20501;-87
2023/06/02 10:15:43;;;;;;;4.80;2.15;;;31.10;34.80;;;;;;4989437;28;20044;-90
2023/06/02 10:18:27;;;;;;;5.60;2.03;;;31.10;34.50;;;;;;4978501;28;20049;-87
2023/06/02 10:21:12;;;;;;;3.47;1.67;;;31.10;34.30;;;;;;4979732;28;20041;-89
2023/06/02 10:23:56;;;;;;;3.22;1.98;;;31.00;34.40;;;;;;4975131;28;20133;-88
2023/06/02 10:26:42;;;;;;;3.55;2.13;;;31.00;34.40;;;;;;4977684;28;20062;-88
2023/06/02 10:29:09;;;;;;;3.78;1.83;;;31.00;34.40;;;;;;4959400;28;20872;-88
2023/06/02 10:31:35;;;;;;;3.53;1.63;;;31.00;34.40;;;;;;4985078;28;20049;-88
2023/06/02 10:34:34;;;;;;;3.97;1.38;;;31.00;34.30;;;;;;4980304;28;20548;-87
2023/06/02 10:37:00;;;;;;;3.85;2.35;;;30.90;33.90;;;;;;4980947;28;20619;-88
2023/06/02 10:39:35;;;;;;;3.40;1.50;;;31.00;34.10;;;;;;4983977;28;20049;-88
2023/06/02 10:42:09;;;;;;;3.30;1.70;;;30.90;34.00;;;;;;4970166;28;20042;-86
2023/06/02 10:44:38;;;;;;;4.28;1.80;;;30.90;33.80;;;;;;4982449;28;20074;-86
2023/06/02 10:47:20;;;;;;;2.08;1.30;;;31.00;33.90;;;;;;4988928;28;20489;-82
2023/06/02 10:50:01;;;;;;;4.10;1.88;;;31.00;33.60;;;;;;4981626;28;20089;-89
2023/06/02 10:53:10;;;;;;;4.88;2.20;;;31.00;33.50;;;;;;4979706;28;20030;-88
2023/06/02 10:55:37;;;;;;;5.18;2.20;;;31.00;33.60;;;;;;4971378;28;20035;-88
2023/06/02 10:58:09;;;;;;;3.58;1.60;;;31.00;34.10;;;;;;4974853;28;20050;-87
2023/06/02 11:00:44;;;;;;;3.03;1.58;;;31.00;33.60;;;;;;4980189;28;20042;-86
2023/06/02 11:03:20;;;;;;;2.60;1.67;;;31.00;33.50;;;;;;4971599;28;20038;-85
2023/06/02 11:05:50;;;;;;;3.65;1.83;;;31.00;34.00;;;;;;4974696;28;20026;-85
2023/06/02 11:08:21;;;;;;;3.40;1.73;;;31.00;33.40;;;;;;4990731;28;20048;-86
2023/06/02 11:11:00;;;;;;;4.40;1.88;;;31.10;33.30;;;;;;4966543;28;20053;-85
2023/06/02 11:13:29;;;;;;;3.65;1.55;;;31.10;33.00;;;;;;4976080;28;20096;-82
2023/06/02 11:15:56;;;;;;;3.58;1.50;;;31.20;33.20;;;;;;4974211;28;20057;-84
2023/06/02 11:18:27;;;;;;;2.53;1.60;;;31.30;33.20;;;;;;4980174;28;20046;-87
2023/06/02 11:20:55;;;;;;;2.80;1.70;;;31.30;33.00;;;;;;4976427;28;20100;-87
2023/06/02 11:23:25;;;;;;;5.32;1.85;;;31.40;33.00;;;;;;4972627;28;20073;-86
2023/06/02 11:26:01;;;;;;;4.75;1.75;;;31.50;32.90;;;;;;4975635;28;20077;-88
2023/06/02 11:28:28;;;;;;;4.65;2.08;;;31.50;32.60;;;;;;4985535;28;20096;-88
2023/06/02 11:31:14;;;;;;;5.30;2.00;;;31.60;32.70;;;;;;4983232;28;20081;-89
2023/06/02 11:33:52;;;;;;;5.68;1.88;;;31.70;32.60;;;;;;4978792;28;20049;-89
2023/06/02 11:36:26;;;;;;;3.88;2.05;;;31.80;32.50;;;;;;4985348;28;20053;-87
2023/06/02 11:39:04;;;;;;;4.20;1.70;;;31.80;32.50;;;;;;4985728;28;20110;-88
2023/06/02 11:41:31;;;;;;;3.08;1.85;;;31.90;32.50;;;;;;4993688;28;20285;-87
2023/06/02 11:44:07;;;;;;;4.18;1.83;;;31.90;32.50;;;;;;4977481;28;20297;-84
2023/06/02 11:46:33;;;;;;;2.63;1.70;;;32.00;32.40;;;;;;4985316;28;20046;-87
2023/06/02 11:49:00;;;;;;;3.00;1.48;;;32.00;32.30;;;;;;4981716;28;20038;-89
2023/06/02 11:51:27;;;;;;;2.67;1.48;;;32.10;32.30;;;;;;4985992;28;20532;-88
2023/06/02 11:54:02;;;;;;;3.65;2.00;;;32.10;32.30;;;;;;4983630;28;20069;-89
2023/06/02 11:56:32;;;;;;;3.03;1.67;;;32.10;32.20;;;;;;4966243;28;20541;-88
2023/06/02 11:58:58;;;;;;;3.15;1.95;;;32.20;32.30;;;;;;4980431;28;20061;-90
2023/06/02 12:01:33;;;;;;;3.10;1.90;;;32.30;32.30;;;;;;4972347;28;20042;-89
2023/06/02 12:04:04;;;;;;;2.58;1.77;;;32.30;32.10;;;;;;4985198;28;20215;-91
2023/06/02 12:06:48;;;;;;;4.63;2.05;;;32.30;32.10;;;;;;4970540;28;20137;-89
2023/06/02 12:09:16;;;;;;;4.22;1.90;;;32.40;32.10;;;;;;4982307;28;20038;-89
2023/06/02 12:11:44;;;;;;;4.53;2.05;;;32.50;32.10;;;;;;4980306;28;20043;-87
2023/06/02 12:14:11;;;;;;;3.45;1.63;;;32.50;32.00;;;;;;4980104;28;20031;-87
2023/06/02 12:16:43;;;;;;;3.55;1.92;;;32.60;32.00;;;;;;4981159;28;20035;-89
2023/06/02 12:19:20;;;;;;;7.50;2.63;;;32.60;31.90;;;;;;4974728;28;20026;-87
2023/06/02 12:21:49;;;;;;;2.80;1.52;;;32.70;31.80;;;;;;4975206;28;20038;-89
2023/06/02 12:24:33;;;;;;;2.30;1.85;;;32.80;31.90;;;;;;4991466;28;20393;-87
2023/06/02 12:27:00;;;;;;;2.05;1.50;;;32.80;31.70;;;;;;4972729;28;20124;-87
2023/06/02 12:29:29;;;;;;;3.83;1.88;;;32.90;31.70;;;;;;4973638;28;20444;-89
2023/06/02 12:32:02;;;;;;;4.55;1.52;;;32.90;31.60;;;;;;4977375;28;20466;-89
2023/06/02 12:34:35;;;;;;;4.63;1.38;;;33.00;31.60;;;;;;4978709;28;20039;-87
2023/06/02 12:37:02;;;;;;;2.17;1.73;;;33.10;31.60;;;;;;4989268;28;20048;-87
2023/06/02 12:39:30;;;;;;;4.20;1.98;;;33.20;31.50;;;;;;4980919;28;20121;-86
2023/06/02 12:41:56;;;;;;;3.30;1.70;;;33.20;31.40;;;;;;4964616;28;20042;-87
2023/06/02 12:44:26;;;;;;;2.72;1.38;;;33.40;31.50;;;;;;4980982;28;20028;-88
2023/06/02 12:46:58;;;;;;;2.40;1.60;;;33.50;31.40;;;;;;4987480;28;20437;-87
2023/06/02 12:49:27;;;;;;;4.57;1.98;;;33.50;31.40;;;;;;4982498;28;20081;-86
2023/06/02 12:51:53;;;;;;;2.42;1.33;;;33.60;31.30;;;;;;4977931;28;20074;-87
2023/06/02 12:54:19;;;;;;;3.47;1.58;;;33.70;31.30;;;;;;4977026;28;20034;-86
2023/06/02 12:56:45;;;;;;;1.88;1.55;;;33.80;31.20;;;;;;4988074;28;20053;-87
2023/06/02 12:59:12;;;;;;;4.22;2.10;;;33.90;31.10;;;;;;4986354;28;20054;-87
2023/06/02 13:01:44;;;;;;;2.22;1.50;;;34.00;31.10;;;;;;4977641;28;20049;-86